Time;durP1;ratioP1;P1;durP2;ratioP2;P2;SDS_P1;SDS_P2;PMS_P1;PMS_P2;Temp;Humidity;BMP_temperature;BMP_pressure;BME280_temperature;BME280_humidity;BME280_pressure;Samples;Min_cycle;Max_cycle;Signal;HPM_P1;HPM_P2
2023/07/12 00:01:12;;;;;;;7.60;4.50;;;;;;;22.83;44.62;100013.23;107797;1254;60297;-67
2023/07/12 00:03:39;;;;;;;6.20;4.20;;;;;;;22.73;44.83;100018.23;107839;1254;75101;-69
2023/07/12 00:06:12;;;;;;;8.60;4.20;;;;;;;22.64;44.99;100017.95;107888;1254;69252;-69
2023/07/12 00:08:40;;;;;;;7.30;4.40;;;;;;;22.59;44.88;100017.53;108810;1253;71471;-69
2023/07/12 00:11:17;;;;;;;8.40;4.20;;;;;;;22.56;44.87;100013.11;109000;1254;61131;-68
2023/07/12 00:13:44;;;;;;;6.60;4.20;;;;;;;22.62;44.56;100017.23;109038;1253;60028;-68
2023/07/12 00:16:29;;;;;;;6.90;4.30;;;;;;;22.74;44.17;100019.38;109068;1253;73098;-68
2023/07/12 00:18:56;;;;;;;4.30;3.40;;;;;;;22.91;44.03;100019.80;109067;1254;69963;-69
2023/07/12 00:21:25;;;;;;;6.00;4.50;;;;;;;22.86;44.03;100025.98;109082;1254;70926;-68
2023/07/12 00:23:55;;;;;;;8.20;4.30;;;;;;;22.77;44.34;100023.39;109057;1254;61675;-70
2023/07/12 00:26:33;;;;;;;7.10;4.10;;;;;;;22.78;44.35;100024.74;109004;1253;59441;-68
2023/07/12 00:29:02;;;;;;;5.40;3.90;;;;;;;22.85;44.17;100021.63;109074;1254;72683;-68
2023/07/12 00:31:32;;;;;;;8.40;4.40;;;;;;;22.77;44.15;100022.15;109098;1253;69379;-69
2023/07/12 00:34:02;;;;;;;;;;;;;;;22.82;43.97;100018.99;109067;1257;72681;-69
2023/07/12 00:36:30;;;;;;;9.00;4.20;;;;;;;22.97;43.89;100019.63;109111;1254;62152;-68
2023/07/12 00:38:59;;;;;;;7.00;3.70;;;;;;;23.11;43.64;100021.08;108990;1253;59790;-69
2023/07/12 00:41:58;;;;;;;8.50;4.50;;;;;;;23.21;43.58;100016.95;109086;1254;73867;-69
2023/07/12 00:44:31;;;;;;;5.90;3.70;;;;;;;23.32;43.40;100019.02;109108;1256;68058;-69
2023/07/12 00:46:58;;;;;;;6.80;3.60;;;;;;;23.19;43.71;100014.96;108214;1254;71693;-68
2023/07/12 00:49:26;;;;;;;9.70;4.20;;;;;;;23.23;43.33;100015.30;107868;1258;60284;-70
2023/07/12 00:52:04;;;;;;;9.50;3.90;;;;;;;23.22;43.29;100013.77;107885;1253;62171;-67
2023/07/12 00:54:49;;;;;;;8.30;3.90;;;;;;;23.12;43.41;100018.62;107892;1254;73719;-69
2023/07/12 00:57:16;;;;;;;6.40;4.30;;;;;;;23.24;43.38;100022.95;107911;1257;70281;-70
2023/07/12 00:59:44;;;;;;;7.00;4.10;;;;;;;23.33;43.24;100020.69;107866;1254;72787;-68
2023/07/12 01:02:12;;;;;;;8.90;4.30;;;;;;;23.33;43.25;100020.02;107988;1257;61612;-68
2023/07/12 01:04:42;;;;;;;7.20;4.10;;;;;;;23.12;43.51;100017.91;107875;1253;60409;-68
2023/07/12 01:07:09;;;;;;;5.30;4.10;;;;;;;23.02;43.78;100022.40;107911;1254;73336;-68
2023/07/12 01:09:37;;;;;;;7.60;4.20;;;;;;;23.18;43.41;100019.32;107893;1254;68868;-69
2023/07/12 01:12:07;;;;;;;7.60;3.80;;;;;;;23.26;43.39;100018.67;108017;1254;72525;-69
2023/07/12 01:14:35;;;;;;;7.10;4.50;;;;;;;23.28;43.70;100020.29;107856;1254;62195;-70
2023/07/12 01:17:05;;;;;;;6.40;4.50;;;;;;;23.20;43.79;100017.55;107919;1258;60310;-67
2023/07/12 01:19:33;;;;;;;9.00;4.10;;;;;;;22.94;43.99;100021.56;107981;1254;73849;-71
2023/07/12 01:22:01;;;;;;;12.10;4.90;;;;;;;23.13;43.57;100018.07;108005;1257;70001;-67
2023/07/12 01:24:30;;;;;;;10.00;4.60;;;;;;;22.77;44.32;100016.61;107922;1254;73661;-68
2023/07/12 01:27:00;;;;;;;10.40;3.70;;;;;;;22.69;44.37;100009.62;107974;1254;62650;-69
2023/07/12 01:29:29;;;;;;;8.10;4.60;;;;;;;22.80;44.20;100011.36;107989;1253;60280;-69
2023/07/12 01:31:56;;;;;;;5.60;4.50;;;;;;;22.71;44.34;100012.27;107925;1254;74343;-69
2023/07/12 01:34:28;;;;;;;8.10;4.40;;;;;;;22.76;44.29;100013.48;108439;1254;70979;-69
2023/07/12 01:36:57;;;;;;;10.10;4.40;;;;;;;22.84;43.88;100013.46;107931;1254;72453;-69
2023/07/12 01:39:25;;;;;;;7.80;4.40;;;;;;;22.84;43.84;100009.39;107924;1254;61865;-69
2023/07/12 01:41:53;;;;;;;6.00;4.10;;;;;;;22.85;43.73;100004.78;107970;1257;60445;-68
2023/07/12 01:44:20;;;;;;;7.60;4.00;;;;;;;22.70;43.81;100001.78;107846;1259;72656;-68
2023/07/12 01:46:51;;;;;;;5.70;4.40;;;;;;;22.77;43.46;100005.65;107986;1254;68875;-67
2023/07/12 01:49:18;;;;;;;7.80;4.30;;;;;;;22.74;43.55;100004.70;107751;1260;73116;-70
2023/07/12 01:51:46;;;;;;;8.30;4.50;;;;;;;22.65;43.61;100002.09;107925;1256;61739;-70
2023/07/12 01:54:14;;;;;;;7.20;4.50;;;;;;;22.58;43.66;100000.93;107967;1253;61028;-70
2023/07/12 01:56:41;;;;;;;5.50;4.40;;;;;;;22.57;43.73;99998.39;107971;1253;73899;-68
2023/07/12 01:59:08;;;;;;;4.80;4.00;;;;;;;22.59;43.64;99999.63;107893;1254;70543;-69
2023/07/12 02:01:35;;;;;;;8.70;4.30;;;;;;;22.61;43.53;100005.16;107915;1254;73027;-69
2023/07/12 02:04:06;;;;;;;6.50;4.10;;;;;;;22.72;43.27;100005.27;107857;1254;60346;-69
2023/07/12 02:06:35;;;;;;;8.40;4.20;;;;;;;22.61;43.73;100008.89;107941;1254;59230;-67
2023/07/12 02:09:03;;;;;;;12.50;4.80;;;;;;;22.75;43.30;100017.31;108002;1254;73828;-70
2023/07/12 02:11:32;;;;;;;9.10;4.60;;;;;;;22.69;43.30;100017.15;107937;1257;70881;-68
2023/07/12 02:14:00;;;;;;;9.30;4.70;;;;;;;22.56;43.57;100021.55;107754;1256;70943;-71
2023/07/12 02:16:27;;;;;;;7.60;4.70;;;;;;;22.55;43.59;100021.94;107909;1256;61106;-67
2023/07/12 02:18:55;;;;;;;11.10;4.50;;;;;;;22.46;43.83;100022.63;107892;1254;60333;-69
2023/07/12 02:21:22;;;;;;;5.50;4.30;;;;;;;22.22;44.02;100021.98;107944;1253;73856;-67
2023/07/12 02:23:52;;;;;;;5.70;4.20;;;;;;;21.89;44.73;100023.21;107872;1253;70128;-68
2023/07/12 02:26:19;;;;;;;6.00;4.40;;;;;;;21.62;45.46;100024.15;109119;1253;71859;-68
2023/07/12 02:28:47;;;;;;;8.20;4.50;;;;;;;21.56;45.70;100019.40;107949;1253;60879;-68
2023/07/12 02:31:22;;;;;;;6.80;4.40;;;;;;;21.58;45.94;100019.08;107781;1258;59146;-70
2023/07/12 02:33:50;;;;;;;9.70;4.50;;;;;;;21.62;45.96;100017.15;107835;1259;73843;-68
2023/07/12 02:36:18;;;;;;;6.60;4.10;;;;;;;21.66;46.10;100017.49;107656;1253;68850;-69
2023/07/12 02:38:46;;;;;;;7.90;4.60;;;;;;;21.83;45.95;100016.24;108119;1253;71454;-69
2023/07/12 02:41:18;;;;;;;5.00;4.10;;;;;;;21.96;45.69;100014.89;107850;1259;61677;-69
2023/07/12 02:43:46;;;;;;;9.10;4.40;;;;;;;21.96;45.80;100020.24;107863;1254;60283;-68
2023/07/12 02:46:13;;;;;;;7.50;4.50;;;;;;;22.13;45.56;100022.59;108038;1254;74342;-68
2023/07/12 02:48:41;;;;;;;8.10;4.50;;;;;;;22.49;45.04;100023.86;107699;1253;70410;-69
2023/07/12 02:51:08;;;;;;;6.90;4.30;;;;;;;22.62;44.50;100029.91;107799;1254;72120;-67
2023/07/12 02:53:36;;;;;;;6.30;4.40;;;;;;;22.71;44.67;100027.30;107844;1259;60381;-68
2023/07/12 02:56:07;;;;;;;6.50;4.20;;;;;;;22.95;44.11;100038.64;107908;1253;60399;-68
2023/07/12 02:58:35;;;;;;;4.90;4.00;;;;;;;22.84;44.52;100037.31;107625;1253;73828;-68
2023/07/12 03:01:02;;;;;;;8.20;4.20;;;;;;;22.73;44.90;100039.48;107872;1253;70039;-70
2023/07/12 03:03:30;;;;;;;7.50;4.40;;;;;;;22.84;44.67;100036.92;107648;1254;72673;-69
2023/07/12 03:06:06;;;;;;;7.70;3.80;;;;;;;22.92;44.69;100037.78;107769;1257;61699;-68
2023/07/12 03:08:33;;;;;;;8.70;4.50;;;;;;;22.92;44.64;100039.27;107843;1253;60305;-68
2023/07/12 03:11:02;;;;;;;9.70;4.00;;;;;;;23.28;44.16;100037.99;107828;1253;72610;-70
2023/07/12 03:13:31;;;;;;;9.40;4.00;;;;;;;23.40;44.05;100040.42;109195;1256;70176;-68
2023/07/12 03:15:58;;;;;;;7.80;3.80;;;;;;;23.48;44.04;100045.43;107883;1254;71704;-68
2023/07/12 03:18:26;;;;;;;4.50;3.60;;;;;;;23.21;44.48;100045.73;107937;1252;61850;-69
2023/07/12 03:20:58;;;;;;;7.00;3.90;;;;;;;23.52;44.22;100051.58;107891;1254;59678;-68
2023/07/12 03:23:25;;;;;;;8.20;3.70;;;;;;;23.85;43.53;100054.75;108994;1254;74290;-69
2023/07/12 03:25:52;;;;;;;7.00;3.40;;;;;;;23.95;43.14;100058.99;107932;1253;68213;-68
2023/07/12 03:28:20;;;;;;;6.30;3.50;;;;;;;23.84;43.37;100063.60;107897;1254;72140;-69
2023/07/12 03:31:01;;;;;;;4.90;3.20;;;;;;;24.04;43.04;100073.56;107903;1254;60431;-68
2023/07/12 03:33:29;;;;;;;8.70;3.30;;;;;;;24.45;42.08;100075.30;107950;1252;60710;-69
2023/07/12 03:35:56;;;;;;;6.90;2.90;;;;;;;24.35;42.20;100080.46;107938;1253;72929;-69
2023/07/12 03:38:28;;;;;;;4.10;3.20;;;;;;;24.38;42.14;100084.91;108286;1253;69984;-70
2023/07/12 03:40:56;;;;;;;8.70;3.60;;;;;;;24.43;42.30;100082.95;107914;1254;71394;-65
2023/07/12 03:43:24;;;;;;;5.50;2.80;;;;;;;24.60;41.87;100084.77;107764;1254;61827;-68
2023/07/12 03:45:52;;;;;;;6.50;2.90;;;;;;;24.73;41.63;100081.88;107740;1253;60508;-70
2023/07/12 03:48:20;;;;;;;7.50;2.70;;;;;;;24.98;40.85;100077.67;107818;1254;74630;-69
2023/07/12 03:50:48;;;;;;;4.20;2.70;;;;;;;25.23;40.17;100083.14;109050;1253;69975;-69
2023/07/12 03:53:16;;;;;;;3.60;2.60;;;;;;;25.42;39.94;100089.34;108099;1253;72656;-69
2023/07/12 03:55:44;;;;;;;7.60;2.70;;;;;;;25.59;39.47;100095.48;107851;1254;61667;-69
2023/07/12 03:58:16;;;;;;;6.90;2.50;;;;;;;25.99;38.86;100096.14;108046;1253;60399;-69
2023/07/12 04:00:45;;;;;;;5.00;2.80;;;;;;;26.60;37.78;100093.10;107869;1253;73974;-70
2023/07/12 04:03:13;;;;;;;4.80;2.70;;;;;;;26.71;37.35;100086.02;107812;1254;70331;-69
2023/07/12 04:05:41;;;;;;;7.50;2.50;;;;;;;26.52;37.46;100089.81;107861;1256;72960;-70
2023/07/12 04:08:10;;;;;;;4.70;2.40;;;;;;;26.47;37.27;100093.02;107920;1253;61595;-68
2023/07/12 04:10:37;;;;;;;5.60;2.00;;;;;;;26.82;36.61;100084.73;107705;1253;60344;-69
2023/07/12 04:13:04;;;;;;;6.00;2.20;;;;;;;26.90;36.34;100089.45;107730;1256;73991;-69
2023/07/12 04:15:32;;;;;;;4.40;2.10;;;;;;;27.11;35.98;100086.98;107680;1257;68805;-70
2023/07/12 04:18:00;;;;;;;3.80;2.10;;;;;;;27.42;35.62;100090.55;107785;1256;70983;-69
2023/07/12 04:20:27;;;;;;;3.30;2.50;;;;;;;27.60;35.41;100097.91;107734;1259;60772;-69
2023/07/12 04:22:55;;;;;;;5.90;2.20;;;;;;;27.75;34.58;100108.34;107737;1255;60447;-69
2023/07/12 04:25:22;;;;;;;2.60;1.80;;;;;;;27.90;34.17;100108.23;108946;1255;73844;-69
2023/07/12 04:30:00;;;;;;;3.80;1.80;;;;;;;25.70;37.55;100117.80;104690;1289;601303;-69
2023/07/12 04:32:27;;;;;;;5.20;2.00;;;;;;;27.01;34.97;100117.81;107179;1264;60028;-70
2023/07/12 04:34:54;;;;;;;2.10;1.60;;;;;;;27.53;34.09;100116.16;107143;1264;60605;-69
2023/07/12 04:37:22;;;;;;;3.20;1.80;;;;;;;27.94;33.54;100122.58;107200;1264;72382;-68
2023/07/12 04:39:49;;;;;;;2.10;1.60;;;;;;;28.23;32.93;100124.72;107906;1254;69925;-69
2023/07/12 04:42:17;;;;;;;2.20;1.60;;;;;;;28.37;32.52;100131.30;107975;1254;70589;-69
2023/07/12 04:44:44;;;;;;;3.20;1.80;;;;;;;28.60;31.74;100138.15;107988;1251;245623;-70
2023/07/12 04:47:12;;;;;;;1.70;1.20;;;;;;;28.66;30.57;100135.32;108210;1251;59241;-70
2023/07/12 04:49:40;;;;;;;5.70;1.80;;;;;;;28.99;30.33;100137.30;108151;1254;71936;-69
2023/07/12 04:52:07;;;;;;;2.10;1.40;;;;;;;29.35;29.64;100137.30;108220;1251;69923;-69
2023/07/12 04:54:41;;;;;;;1.50;1.40;;;;;;;29.61;28.64;100135.62;108184;1251;72584;-69
2023/07/12 04:57:08;;;;;;;3.00;1.30;;;;;;;29.58;29.25;100134.02;108143;1256;60056;-69
2023/07/12 04:59:36;;;;;;;2.10;1.40;;;;;;;29.54;28.92;100136.83;108174;1251;59088;-69
2023/07/12 05:02:04;;;;;;;3.50;1.30;;;;;;;29.69;28.42;100136.31;108039;1253;73425;-71
2023/07/12 05:04:31;;;;;;;7.10;1.50;;;;;;;30.17;28.29;100134.61;107981;1257;70094;-70
2023/07/12 05:06:58;;;;;;;1.60;1.10;;;;;;;30.41;26.59;100130.88;107949;1252;70767;-71
2023/07/12 05:09:26;;;;;;;2.30;1.40;;;;;;;30.65;26.32;100133.19;107979;1254;60154;-69
2023/07/12 05:11:53;;;;;;;4.20;1.10;;;;;;;30.93;25.94;100135.64;108039;1257;60801;-69
2023/07/12 05:14:20;;;;;;;3.30;1.10;;;;;;;31.09;25.65;100128.46;108042;1257;73062;-69
2023/07/12 05:16:48;;;;;;;1.80;1.20;;;;;;;31.10;26.04;100127.28;108010;1254;70766;-68
2023/07/12 05:19:15;;;;;;;1.50;1.30;;;;;;;31.04;26.06;100124.20;107929;1254;72658;-70
2023/07/12 05:21:42;;;;;;;1.70;1.10;;;;;;;30.94;26.40;100117.66;107843;1257;59884;-70
2023/07/12 05:24:10;;;;;;;4.60;1.00;;;;;;;31.34;25.91;100117.77;107934;1253;59486;-70
2023/07/12 05:26:37;;;;;;;1.80;1.10;;;;;;;31.78;25.36;100117.19;107993;1253;73142;-70
2023/07/12 05:29:04;;;;;;;2.60;0.90;;;;;;;31.99;24.93;100119.91;107984;1255;70278;-70
2023/07/12 05:31:32;;;;;;;3.70;1.10;;;;;;;31.91;24.64;100121.55;108027;1253;72721;-71
2023/07/12 05:33:59;;;;;;;3.60;1.10;;;;;;;32.25;24.35;100118.62;108066;1253;59628;-69
2023/07/12 05:36:27;;;;;;;1.10;0.90;;;;;;;32.46;23.64;100118.65;107889;1259;62215;-70
2023/07/12 05:38:54;;;;;;;2.10;1.10;;;;;;;32.60;23.67;100115.50;108022;1252;72987;-71
2023/07/12 05:41:22;;;;;;;4.90;1.00;;;;;;;32.97;23.47;100115.36;107938;1253;70113;-70
2023/07/12 05:43:49;;;;;;;4.90;1.10;;;;;;;33.02;23.21;100110.77;107966;1253;72469;-70
2023/07/12 05:46:17;;;;;;;3.70;0.80;;;;;;;33.50;22.41;100109.31;107937;1253;59521;-69
2023/07/12 05:48:45;;;;;;;2.30;1.10;;;;;;;33.69;22.05;100103.80;107906;1254;59362;-70
2023/07/12 05:51:12;;;;;;;3.80;0.90;;;;;;;33.71;21.63;100100.16;107880;1254;62894;-70
2023/07/12 05:53:39;;;;;;;1.90;0.90;;;;;;;33.70;21.40;100097.47;107895;1254;63142;-70
2023/07/12 05:56:07;;;;;;;2.80;1.10;;;;;;;33.55;21.80;100103.09;107872;1254;63716;-69
2023/07/12 05:58:35;;;;;;;2.50;1.30;;;;;;;33.91;21.61;100090.20;107913;1257;60141;-68
2023/07/12 06:01:03;;;;;;;5.70;0.90;;;;;;;34.07;21.55;100086.21;107929;1254;59501;-69
2023/07/12 06:03:31;;;;;;;3.20;1.10;;;;;;;34.00;21.58;100083.44;107944;1254;66772;-70
2023/07/12 06:05:59;;;;;;;2.50;0.80;;;;;;;34.23;21.67;100087.34;108099;1254;61553;-69
2023/07/12 06:08:27;;;;;;;2.20;0.80;;;;;;;34.56;21.49;100094.94;107908;1259;63766;-69
2023/07/12 06:10:54;;;;;;;4.20;1.10;;;;;;;34.76;20.83;100093.85;107858;1256;59593;-71
2023/07/12 06:13:22;;;;;;;1.70;0.70;;;;;;;34.94;20.73;100092.11;107891;1254;59363;-71
2023/07/12 06:15:49;;;;;;;2.20;1.00;;;;;;;35.25;20.65;100092.79;107926;1254;64158;-71
2023/07/12 06:18:17;;;;;;;2.40;0.90;;;;;;;35.44;20.44;100095.50;107885;1254;60098;-70
2023/07/12 06:20:45;;;;;;;1.50;0.90;;;;;;;35.55;20.44;100094.09;107905;1256;63735;-69
2023/07/12 06:23:12;;;;;;;1.70;0.90;;;;;;;35.52;19.74;100092.92;107914;1254;59807;-70
2023/07/12 06:25:40;;;;;;;3.50;1.10;;;;;;;35.44;19.76;100092.43;107861;1258;59618;-71
2023/07/12 06:28:07;;;;;;;1.50;0.90;;;;;;;35.83;19.85;100093.83;107911;1254;66438;-70
2023/07/12 06:30:35;;;;;;;1.70;1.10;;;;;;;36.24;19.40;100084.35;107867;1254;61532;-71
2023/07/12 06:33:03;;;;;;;2.30;0.90;;;;;;;36.39;19.21;100081.88;107866;1254;62480;-70
2023/07/12 06:35:30;;;;;;;6.40;1.00;;;;;;;36.05;19.50;100083.67;107859;1255;60197;-71
2023/07/12 06:37:58;;;;;;;1.80;0.80;;;;;;;35.93;19.86;100081.50;107957;1253;59453;-71
2023/07/12 06:40:26;;;;;;;1.40;0.70;;;;;;;35.70;19.97;100081.39;107894;1253;64478;-72
2023/07/12 06:42:53;;;;;;;1.20;1.00;;;;;;;35.67;19.38;100079.75;107929;1254;61445;-72
2023/07/12 06:45:21;;;;;;;3.10;0.70;;;;;;;36.16;19.27;100083.83;107873;1255;63714;-69
2023/07/12 06:47:51;;;;;;;2.60;0.70;;;;;;;36.38;18.77;100086.11;107875;1257;59522;-71
2023/07/12 06:50:22;;;;;;;2.40;0.80;;;;;;;36.76;18.36;100087.73;108019;1253;59558;-69
2023/07/12 06:52:49;;;;;;;2.40;1.00;;;;;;;36.83;18.33;100082.44;107866;1253;64628;-69
2023/07/12 06:55:16;;;;;;;2.00;1.00;;;;;;;36.98;18.03;100077.98;107958;1254;60928;-71
2023/07/12 06:57:44;;;;;;;1.50;1.00;;;;;;;37.04;17.99;100071.22;108000;1254;63701;-69
2023/07/12 07:00:12;;;;;;;2.20;0.90;;;;;;;36.95;18.05;100074.27;107884;1257;59515;-70
2023/07/12 07:02:39;;;;;;;4.10;1.00;;;;;;;37.10;18.16;100078.77;107933;1254;59532;-71
2023/07/12 07:05:07;;;;;;;1.70;1.00;;;;;;;37.58;17.26;100077.20;107904;1254;64060;-70
2023/07/12 07:07:34;;;;;;;2.10;0.80;;;;;;;37.56;16.35;100076.39;107918;1257;61327;-69
2023/07/12 07:10:02;;;;;;;2.40;0.90;;;;;;;37.41;16.28;100074.83;108007;1253;63127;-69
2023/07/12 07:12:30;;;;;;;4.70;1.00;;;;;;;37.23;16.54;100071.92;108568;1259;57872;-69
2023/07/12 07:14:57;;;;;;;2.80;0.80;;;;;;;37.18;16.87;100064.88;107994;1254;59643;-70
2023/07/12 07:17:24;;;;;;;2.70;0.80;;;;;;;37.36;17.33;100065.52;107939;1254;64134;-73
2023/07/12 07:19:52;;;;;;;3.10;0.90;;;;;;;37.67;17.09;100064.42;108657;1253;61867;-70
2023/07/12 07:22:19;;;;;;;2.00;0.80;;;;;;;37.95;16.78;100057.46;107961;1254;62706;-70
2023/07/12 07:24:46;;;;;;;5.00;1.00;;;;;;;38.13;16.87;100051.95;108242;1253;59541;-71
2023/07/12 07:27:14;;;;;;;1.10;0.80;;;;;;;38.48;16.38;100051.20;108287;1253;57846;-71
2023/07/12 07:29:41;;;;;;;1.20;0.80;;;;;;;38.32;16.70;100055.36;108172;1253;62827;-71
2023/07/12 07:32:09;;;;;;;1.10;0.70;;;;;;;38.25;16.33;100063.32;108085;1253;61976;-70
2023/07/12 07:34:36;;;;;;;1.90;0.90;;;;;;;38.20;16.16;100065.27;108430;1256;63017;-71
2023/07/12 07:37:03;;;;;;;3.70;0.90;;;;;;;38.34;16.24;100069.48;108203;1252;59883;-71
2023/07/12 07:39:31;;;;;;;1.50;0.80;;;;;;;38.32;16.05;100065.91;108457;1253;59017;-70
2023/07/12 07:42:00;;;;;;;2.60;0.90;;;;;;;38.44;15.82;100061.52;108464;1254;64157;-69
2023/07/12 07:44:28;;;;;;;2.20;1.00;;;;;;;38.47;15.75;100051.51;108136;1253;60100;-72
2023/07/12 07:46:55;;;;;;;2.50;1.00;;;;;;;38.18;16.37;100043.25;108552;1253;63230;-72
2023/07/12 07:49:22;;;;;;;2.70;1.10;;;;;;;38.25;16.49;100041.00;109181;1253;57390;-71
2023/07/12 07:51:50;;;;;;;2.30;1.20;;;;;;;38.33;16.40;100044.70;109022;1253;59302;-70
2023/07/12 07:54:17;;;;;;;5.90;0.90;;;;;;;38.64;16.15;100046.41;108081;1252;64647;-71
2023/07/12 07:56:44;;;;;;;1.90;1.20;;;;;;;39.10;16.25;100045.86;107952;1253;61440;-70
2023/07/12 07:59:12;;;;;;;1.20;1.00;;;;;;;39.40;15.85;100046.27;107940;1256;65662;-72
2023/07/12 08:01:40;;;;;;;4.30;1.00;;;;;;;39.63;16.33;100043.13;107975;1253;59730;-72
2023/07/12 08:04:08;;;;;;;3.50;1.20;;;;;;;39.06;16.36;100050.39;109010;1253;57447;-70
2023/07/12 08:06:38;;;;;;;1.50;0.70;;;;;;;38.71;16.56;100056.79;109113;1254;63122;-72
2023/07/12 08:09:07;;;;;;;4.00;0.90;;;;;;;38.66;16.67;100059.51;109181;1255;61404;-71
2023/07/12 08:11:34;;;;;;;2.90;1.20;;;;;;;38.43;16.97;100057.30;109177;1257;63772;-71
2023/07/12 08:14:03;;;;;;;2.70;1.20;;;;;;;37.92;17.24;100056.48;107962;1254;59422;-70
2023/07/12 08:16:33;;;;;;;3.70;0.90;;;;;;;37.55;17.79;100053.83;107904;1253;59922;-70
2023/07/12 08:19:03;;;;;;;1.30;1.00;;;;;;;37.55;17.75;100058.98;107966;1253;64122;-70
2023/07/12 08:21:43;;;;;;;3.00;1.00;;;;;;;37.56;17.44;100050.60;108574;1253;61921;-71
2023/07/12 08:24:11;;;;;;;1.40;0.90;;;;;;;37.61;17.31;100050.22;109212;1253;63861;-72
2023/07/12 08:26:38;;;;;;;1.20;0.90;;;;;;;37.53;16.75;100044.04;109133;1254;57610;-70
2023/07/12 08:29:12;;;;;;;0.90;0.80;;;;;;;37.16;16.91;100045.83;107876;1253;59576;-71
2023/07/12 08:31:39;;;;;;;2.40;0.90;;;;;;;37.30;16.76;100043.05;107893;1257;66638;-70
2023/07/12 08:34:10;;;;;;;2.60;1.00;;;;;;;37.66;16.96;100046.39;108231;1256;60397;-69
2023/07/12 08:36:37;;;;;;;1.10;0.90;;;;;;;37.75;17.07;100053.35;108922;1254;64163;-70
2023/07/12 08:39:05;;;;;;;2.70;1.00;;;;;;;37.38;17.11;100056.58;108095;1253;60411;-70
2023/07/12 08:41:34;;;;;;;3.50;1.00;;;;;;;37.16;16.89;100054.91;107862;1252;60432;-71
2023/07/12 08:44:02;;;;;;;2.40;0.90;;;;;;;37.23;16.92;100056.15;107947;1254;65312;-72
2023/07/12 08:46:30;;;;;;;1.60;0.80;;;;;;;36.98;16.67;100060.13;107693;1254;61350;-71
2023/07/12 08:48:59;;;;;;;1.00;0.80;;;;;;;37.34;16.65;100059.30;107944;1253;62434;-70
2023/07/12 08:51:28;;;;;;;1.50;1.10;;;;;;;37.22;16.22;100049.48;108765;1254;58268;-71
2023/07/12 08:53:56;;;;;;;1.60;1.00;;;;;;;36.70;16.79;100048.50;108218;1252;59193;-70
2023/07/12 08:56:24;;;;;;;1.40;0.90;;;;;;;36.63;16.85;100049.70;108166;1253;63673;-70
2023/07/12 08:58:53;;;;;;;1.80;0.80;;;;;;;36.74;16.70;100046.09;108209;1253;60399;-70
2023/07/12 09:01:41;;;;;;;2.00;0.80;;;;;;;36.95;16.47;100045.01;107970;1254;62460;-71
2023/07/12 09:04:21;;;;;;;2.80;1.00;;;;;;;37.22;16.46;100043.63;108142;1253;60366;-69
2023/07/12 09:06:56;;;;;;;0.90;0.80;;;;;;;37.62;16.32;100043.40;109115;1253;58242;-69
2023/07/12 09:09:24;;;;;;;1.20;1.10;;;;;;;37.91;16.33;100040.59;109155;1254;67199;-70
2023/07/12 09:11:51;;;;;;;1.60;0.80;;;;;;;38.11;16.43;100043.34;109159;1254;61562;-70
2023/07/12 09:14:20;;;;;;;1.40;0.80;;;;;;;38.35;16.00;100036.34;107994;1253;63885;-71
2023/07/12 09:16:49;;;;;;;1.30;0.80;;;;;;;38.63;15.72;100031.77;107905;1254;61150;-72
2023/07/12 09:19:25;;;;;;;1.60;1.00;;;;;;;38.98;15.46;100029.83;108010;1253;60152;-70
2023/07/12 09:21:59;;;;;;;3.20;1.10;;;;;;;39.54;14.98;100033.42;108269;1253;64190;-71
2023/07/12 09:24:31;;;;;;;2.50;0.90;;;;;;;39.87;14.67;100032.10;107976;1253;61372;-70
2023/07/12 09:27:03;;;;;;;2.50;0.90;;;;;;;39.91;14.19;100027.47;108716;1254;63715;-71
2023/07/12 09:29:33;;;;;;;1.30;0.90;;;;;;;40.29;13.83;100021.48;107923;1254;60566;-70
2023/07/12 09:32:00;;;;;;;1.30;1.00;;;;;;;40.19;14.14;100021.60;108397;1254;60340;-69
2023/07/12 09:34:37;;;;;;;1.30;0.90;;;;;;;40.36;14.36;100025.14;109191;1254;63902;-71
2023/07/12 09:37:20;;;;;;;5.70;1.00;;;;;;;40.59;14.28;100028.71;108294;1254;61377;-71
2023/07/12 09:40:01;;;;;;;4.30;0.90;;;;;;;40.78;14.04;100022.75;108087;1254;63922;-70
2023/07/12 09:42:29;;;;;;;1.00;0.80;;;;;;;40.82;13.99;100022.38;108029;1254;60225;-71
2023/07/12 09:44:57;;;;;;;2.20;1.00;;;;;;;40.78;13.85;100027.85;107984;1257;60379;-71
2023/07/12 09:47:27;;;;;;;1.90;1.00;;;;;;;40.78;13.46;100030.60;107925;1253;65116;-70
2023/07/12 09:49:59;;;;;;;2.60;0.90;;;;;;;40.86;13.49;100032.85;108027;1254;61835;-71
2023/07/12 09:52:29;;;;;;;3.80;1.10;;;;;;;41.03;13.57;100029.60;107987;1255;63792;-70
2023/07/12 09:55:32;;;;;;;2.90;1.20;;;;;;;40.99;13.75;100028.67;108010;1254;60844;-71
2023/07/12 09:58:14;;;;;;;1.80;0.80;;;;;;;40.90;13.72;100028.98;107563;1253;60432;-70
2023/07/12 10:00:47;;;;;;;2.20;1.00;;;;;;;40.84;13.57;100022.01;108006;1253;63929;-70
2023/07/12 10:03:29;;;;;;;0.80;0.70;;;;;;;40.43;13.63;100018.02;107933;1254;61407;-70
2023/07/12 10:06:02;;;;;;;1.50;0.90;;;;;;;40.32;14.12;100016.07;108002;1253;73301;-69
2023/07/12 10:08:45;;;;;;;2.40;1.40;;;;;;;40.49;14.38;100013.35;108014;1254;60395;-70
2023/07/12 10:11:58;;;;;;;2.00;1.10;;;;;;;40.35;14.17;100009.73;108001;1254;60401;-71
2023/07/12 10:14:31;;;;;;;1.80;0.90;;;;;;;39.74;14.16;100021.42;107929;1254;64302;-72
2023/07/12 10:16:59;;;;;;;2.30;1.00;;;;;;;39.27;14.29;100017.02;108130;1253;60866;-70
2023/07/12 10:19:30;;;;;;;2.30;1.10;;;;;;;39.28;14.16;100019.57;108057;1253;63211;-71
2023/07/12 10:21:58;;;;;;;;;;;;;;;39.31;14.17;100019.54;107946;1257;60305;-71
2023/07/12 10:24:36;;;;;;;2.10;1.20;;;;;;;39.39;14.17;100016.27;108663;1253;59125;-71
2023/07/12 10:27:13;;;;;;;1.20;0.90;;;;;;;39.28;14.20;100017.77;109094;1253;65277;-70
2023/07/12 10:29:47;;;;;;;1.50;0.90;;;;;;;38.70;14.82;100020.75;108527;1254;61869;-72
2023/07/12 10:32:21;;;;;;;1.40;0.90;;;;;;;37.81;15.29;100018.58;108893;1259;64143;-72
2023/07/12 10:35:03;;;;;;;4.00;0.90;;;;;;;37.69;15.31;100011.44;108420;1254;60846;-71
2023/07/12 10:37:47;;;;;;;2.10;1.00;;;;;;;38.03;15.53;100008.56;108032;1253;59655;-71
2023/07/12 10:40:15;;;;;;;3.00;1.10;;;;;;;38.16;14.90;100007.81;108394;1254;64872;-70
2023/07/12 10:42:58;;;;;;;1.20;0.80;;;;;;;38.06;14.46;100000.42;107956;1258;61370;-71
2023/07/12 10:45:29;;;;;;;2.00;1.10;;;;;;;38.12;14.79;99996.90;108038;1254;63716;-72
2023/07/12 10:47:56;;;;;;;1.80;1.00;;;;;;;37.91;15.00;99991.67;108186;1254;60294;-71
2023/07/12 10:50:27;;;;;;;1.10;1.00;;;;;;;37.81;15.35;99994.35;107830;1259;60421;-70
2023/07/12 10:53:02;;;;;;;1.70;0.90;;;;;;;37.60;15.69;99995.48;108021;1252;63855;-70
2023/07/12 10:55:47;;;;;;;2.40;1.30;;;;;;;37.40;15.50;99991.73;108066;1254;60213;-68
2023/07/12 10:58:21;;;;;;;2.50;1.30;;;;;;;37.47;15.81;99994.48;108028;1254;62801;-72
2023/07/12 11:00:55;;;;;;;2.50;1.00;;;;;;;37.35;15.42;99993.77;108024;1253;60306;-70
2023/07/12 11:03:40;;;;;;;2.90;1.10;;;;;;;37.29;15.63;99989.71;108198;1252;60310;-72
2023/07/12 11:06:25;;;;;;;4.00;1.40;;;;;;;37.43;15.89;99985.39;109293;1256;65260;-70
2023/07/12 11:08:59;;;;;;;1.50;1.00;;;;;;;37.62;16.05;99983.89;108268;1254;61376;-73
2023/07/12 11:11:33;;;;;;;1.20;0.90;;;;;;;37.59;15.33;99981.55;109164;1254;63783;-71
2023/07/12 11:14:19;;;;;;;1.50;1.00;;;;;;;37.75;15.43;99985.29;108152;1253;60554;-69
2023/07/12 11:17:20;;;;;;;3.50;1.10;;;;;;;37.56;15.82;99983.19;108247;1252;59266;-71
2023/07/12 11:20:08;;;;;;;1.60;1.10;;;;;;;37.25;15.94;99981.80;107955;1252;65050;-70
2023/07/12 11:22:48;;;;;;;2.70;1.00;;;;;;;37.17;15.53;99986.98;108129;1252;61370;-70
2023/07/12 11:25:32;;;;;;;7.00;1.50;;;;;;;37.51;15.81;99990.64;108406;1253;63850;-69
2023/07/12 11:28:01;;;;;;;3.10;1.40;;;;;;;37.72;15.38;99990.29;108340;1253;60328;-69
2023/07/12 11:30:28;;;;;;;2.00;1.10;;;;;;;37.86;14.93;99986.27;108042;1253;60335;-70
2023/07/12 11:33:11;;;;;;;5.10;1.00;;;;;;;37.81;14.92;99983.36;108047;1252;64942;-70